sensor_id;sensor_type;location;lat;lon;timestamp;temperature;humidity
8459;DHT22;4266;48.816;9.154;2024-01-10T00:00:47;-4.60;63.50
8459;DHT22;4266;48.816;9.154;2024-01-10T00:03:13;-4.60;62.50
8459;DHT22;4266;48.816;9.154;2024-01-10T00:05:39;-4.50;63.30
8459;DHT22;4266;48.816;9.154;2024-01-10T00:08:05;-4.60;63.20
8459;DHT22;4266;48.816;9.154;2024-01-10T00:10:31;-4.60;62.40
8459;DHT22;4266;48.816;9.154;2024-01-10T00:12:57;-4.50;63.80
8459;DHT22;4266;48.816;9.154;2024-01-10T00:15:23;-4.50;63.80
8459;DHT22;4266;48.816;9.154;2024-01-10T00:17:49;-4.50;63.30
8459;DHT22;4266;48.816;9.154;2024-01-10T00:20:15;-4.50;63.70
8459;DHT22;4266;48.816;9.154;2024-01-10T00:22:41;-4.50;65.30
8459;DHT22;4266;48.816;9.154;2024-01-10T00:25:07;-4.50;64.30
8459;DHT22;4266;48.816;9.154;2024-01-10T00:29:57;-4.50;62.80
8459;DHT22;4266;48.816;9.154;2024-01-10T00:32:22;-4.50;62.30
8459;DHT22;4266;48.816;9.154;2024-01-10T00:34:49;-4.40;61.20
8459;DHT22;4266;48.816;9.154;2024-01-10T00:37:15;-4.50;61.00
8459;DHT22;4266;48.816;9.154;2024-01-10T00:39:40;-4.40;62.90
8459;DHT22;4266;48.816;9.154;2024-01-10T00:42:06;-4.40;62.90
8459;DHT22;4266;48.816;9.154;2024-01-10T00:44:31;-4.40;62.10
8459;DHT22;4266;48.816;9.154;2024-01-10T00:46:58;-4.40;62.70
8459;DHT22;4266;48.816;9.154;2024-01-10T00:49:23;-4.40;62.70
8459;DHT22;4266;48.816;9.154;2024-01-10T00:51:49;-4.40;62.60
8459;DHT22;4266;48.816;9.154;2024-01-10T00:54:15;-4.40;63.00
8459;DHT22;4266;48.816;9.154;2024-01-10T00:56:41;-4.40;64.30
8459;DHT22;4266;48.816;9.154;2024-01-10T00:59:06;-4.40;62.00
8459;DHT22;4266;48.816;9.154;2024-01-10T01:01:32;-4.40;62.40
8459;DHT22;4266;48.816;9.154;2024-01-10T01:03:58;-4.50;62.60
8459;DHT22;4266;48.816;9.154;2024-01-10T01:06:23;-4.40;63.00
8459;DHT22;4266;48.816;9.154;2024-01-10T01:08:49;-4.50;63.70
8459;DHT22;4266;48.816;9.154;2024-01-10T01:11:15;-4.40;64.40
8459;DHT22;4266;48.816;9.154;2024-01-10T01:13:40;-4.40;63.60
8459;DHT22;4266;48.816;9.154;2024-01-10T01:16:06;-4.30;64.30
8459;DHT22;4266;48.816;9.154;2024-01-10T01:18:32;-4.30;61.90
8459;DHT22;4266;48.816;9.154;2024-01-10T01:20:58;-4.40;62.80
8459;DHT22;4266;48.816;9.154;2024-01-10T01:23:24;-4.20;61.50
8459;DHT22;4266;48.816;9.154;2024-01-10T01:25:49;-4.20;61.50
8459;DHT22;4266;48.816;9.154;2024-01-10T01:28:15;-4.00;59.60
8459;DHT22;4266;48.816;9.154;2024-01-10T01:30:41;-4.10;56.90
8459;DHT22;4266;48.816;9.154;2024-01-10T01:33:06;-4.10;56.80
8459;DHT22;4266;48.816;9.154;2024-01-10T01:35:33;-4.00;57.30
8459;DHT22;4266;48.816;9.154;2024-01-10T01:37:58;-4.10;57.20
8459;DHT22;4266;48.816;9.154;2024-01-10T01:40:24;-4.10;55.90
8459;DHT22;4266;48.816;9.154;2024-01-10T01:42:50;-4.00;56.20
8459;DHT22;4266;48.816;9.154;2024-01-10T01:45:16;-4.00;55.40
8459;DHT22;4266;48.816;9.154;2024-01-10T01:47:42;-4.20;55.70
8459;DHT22;4266;48.816;9.154;2024-01-10T01:50:08;-4.10;55.80
8459;DHT22;4266;48.816;9.154;2024-01-10T01:52:33;-4.00;55.80
8459;DHT22;4266;48.816;9.154;2024-01-10T01:54:59;-4.00;55.40
8459;DHT22;4266;48.816;9.154;2024-01-10T01:57:25;-3.90;54.70
8459;DHT22;4266;48.816;9.154;2024-01-10T01:59:51;-4.00;54.60
8459;DHT22;4266;48.816;9.154;2024-01-10T02:02:17;-3.90;55.30
8459;DHT22;4266;48.816;9.154;2024-01-10T02:04:42;-3.80;55.20
8459;DHT22;4266;48.816;9.154;2024-01-10T02:07:08;-3.80;54.60
8459;DHT22;4266;48.816;9.154;2024-01-10T02:09:34;-3.80;54.10
8459;DHT22;4266;48.816;9.154;2024-01-10T02:12:00;-3.90;54.00
8459;DHT22;4266;48.816;9.154;2024-01-10T02:14:26;-3.90;54.00
8459;DHT22;4266;48.816;9.154;2024-01-10T02:16:51;-3.90;54.40
8459;DHT22;4266;48.816;9.154;2024-01-10T02:19:20;-4.00;53.70
8459;DHT22;4266;48.816;9.154;2024-01-10T02:21:46;-3.90;53.20
8459;DHT22;4266;48.816;9.154;2024-01-10T02:24:12;-4.10;53.10
8459;DHT22;4266;48.816;9.154;2024-01-10T02:26:38;-4.10;53.10
8459;DHT22;4266;48.816;9.154;2024-01-10T02:29:03;-4.00;53.70
8459;DHT22;4266;48.816;9.154;2024-01-10T02:31:29;-4.00;52.90
8459;DHT22;4266;48.816;9.154;2024-01-10T02:33:55;-4.00;53.00
8459;DHT22;4266;48.816;9.154;2024-01-10T02:36:21;-4.10;53.30
8459;DHT22;4266;48.816;9.154;2024-01-10T02:38:47;-4.10;53.30
8459;DHT22;4266;48.816;9.154;2024-01-10T02:41:13;-4.20;52.50
8459;DHT22;4266;48.816;9.154;2024-01-10T02:43:39;-4.20;52.40
8459;DHT22;4266;48.816;9.154;2024-01-10T02:46:04;-4.30;52.40
8459;DHT22;4266;48.816;9.154;2024-01-10T02:48:30;-4.20;52.20
8459;DHT22;4266;48.816;9.154;2024-01-10T02:50:56;-4.30;52.70
8459;DHT22;4266;48.816;9.154;2024-01-10T02:53:22;-4.30;52.10
8459;DHT22;4266;48.816;9.154;2024-01-10T02:55:48;-4.30;52.10
8459;DHT22;4266;48.816;9.154;2024-01-10T02:58:14;-4.20;51.60
8459;DHT22;4266;48.816;9.154;2024-01-10T03:00:39;-4.20;51.50
8459;DHT22;4266;48.816;9.154;2024-01-10T03:03:05;-4.20;51.80
8459;DHT22;4266;48.816;9.154;2024-01-10T03:05:31;-4.20;51.10
8459;DHT22;4266;48.816;9.154;2024-01-10T03:07:56;-4.20;51.50
8459;DHT22;4266;48.816;9.154;2024-01-10T03:10:22;-4.30;51.60
8459;DHT22;4266;48.816;9.154;2024-01-10T03:12:48;-4.30;51.20
8459;DHT22;4266;48.816;9.154;2024-01-10T03:15:13;-4.20;50.70
8459;DHT22;4266;48.816;9.154;2024-01-10T03:17:40;-4.10;50.80
8459;DHT22;4266;48.816;9.154;2024-01-10T03:20:07;-4.20;50.70
8459;DHT22;4266;48.816;9.154;2024-01-10T03:22:32;-4.10;50.70
8459;DHT22;4266;48.816;9.154;2024-01-10T03:24:58;-4.10;50.90
8459;DHT22;4266;48.816;9.154;2024-01-10T03:27:24;-4.10;50.50
8459;DHT22;4266;48.816;9.154;2024-01-10T03:29:50;-4.00;51.40
8459;DHT22;4266;48.816;9.154;2024-01-10T03:32:16;-4.00;51.40
8459;DHT22;4266;48.816;9.154;2024-01-10T03:34:41;-4.10;50.50
8459;DHT22;4266;48.816;9.154;2024-01-10T03:37:07;-4.00;50.30
8459;DHT22;4266;48.816;9.154;2024-01-10T03:39:33;-4.00;50.50
8459;DHT22;4266;48.816;9.154;2024-01-10T03:41:58;-4.00;50.70
8459;DHT22;4266;48.816;9.154;2024-01-10T03:44:26;-3.90;50.80
8459;DHT22;4266;48.816;9.154;2024-01-10T03:46:50;-3.90;50.80
8459;DHT22;4266;48.816;9.154;2024-01-10T03:49:17;-3.90;50.50
8459;DHT22;4266;48.816;9.154;2024-01-10T03:51:42;-4.00;50.40
8459;DHT22;4266;48.816;9.154;2024-01-10T03:54:08;-4.00;50.30
8459;DHT22;4266;48.816;9.154;2024-01-10T03:56:34;-3.90;50.40
8459;DHT22;4266;48.816;9.154;2024-01-10T03:58:59;-3.90;50.60
8459;DHT22;4266;48.816;9.154;2024-01-10T04:01:26;-4.00;50.00
8459;DHT22;4266;48.816;9.154;2024-01-10T04:03:51;-4.00;50.00
8459;DHT22;4266;48.816;9.154;2024-01-10T04:06:17;-3.90;50.30
8459;DHT22;4266;48.816;9.154;2024-01-10T04:08:43;-3.90;50.10
8459;DHT22;4266;48.816;9.154;2024-01-10T04:11:09;-3.90;50.50
8459;DHT22;4266;48.816;9.154;2024-01-10T04:13:35;-3.90;50.40
8459;DHT22;4266;48.816;9.154;2024-01-10T04:16:00;-4.00;50.10
8459;DHT22;4266;48.816;9.154;2024-01-10T04:18:26;-3.90;50.30
8459;DHT22;4266;48.816;9.154;2024-01-10T04:20:52;-3.90;50.20
8459;DHT22;4266;48.816;9.154;2024-01-10T04:23:17;-3.90;50.20
8459;DHT22;4266;48.816;9.154;2024-01-10T04:25:43;-3.90;50.30
8459;DHT22;4266;48.816;9.154;2024-01-10T04:28:09;-3.90;50.30
8459;DHT22;4266;48.816;9.154;2024-01-10T04:30:34;-3.90;50.30
8459;DHT22;4266;48.816;9.154;2024-01-10T04:33:00;-3.90;50.50
8459;DHT22;4266;48.816;9.154;2024-01-10T04:35:26;-3.80;50.40
8459;DHT22;4266;48.816;9.154;2024-01-10T04:37:52;-3.70;50.60
8459;DHT22;4266;48.816;9.154;2024-01-10T04:40:18;-3.70;50.50
8459;DHT22;4266;48.816;9.154;2024-01-10T04:42:44;-3.70;50.70
8459;DHT22;4266;48.816;9.154;2024-01-10T04:45:09;-3.60;51.00
8459;DHT22;4266;48.816;9.154;2024-01-10T04:47:35;-3.70;50.40
8459;DHT22;4266;48.816;9.154;2024-01-10T04:50:01;-3.70;50.60
8459;DHT22;4266;48.816;9.154;2024-01-10T04:52:26;-3.60;50.60
8459;DHT22;4266;48.816;9.154;2024-01-10T04:54:52;-3.60;50.50
8459;DHT22;4266;48.816;9.154;2024-01-10T04:57:18;-3.50;50.50
8459;DHT22;4266;48.816;9.154;2024-01-10T04:59:43;-3.50;50.90
8459;DHT22;4266;48.816;9.154;2024-01-10T05:02:09;-3.50;50.80
8459;DHT22;4266;48.816;9.154;2024-01-10T05:04:35;-3.40;50.70
8459;DHT22;4266;48.816;9.154;2024-01-10T05:07:02;-3.50;50.70
8459;DHT22;4266;48.816;9.154;2024-01-10T05:09:27;-3.50;50.70
8459;DHT22;4266;48.816;9.154;2024-01-10T05:11:54;-3.50;51.00
8459;DHT22;4266;48.816;9.154;2024-01-10T05:14:19;-3.50;51.00
8459;DHT22;4266;48.816;9.154;2024-01-10T05:16:45;-3.40;51.80
8459;DHT22;4266;48.816;9.154;2024-01-10T05:19:11;-3.40;51.70
8459;DHT22;4266;48.816;9.154;2024-01-10T05:21:36;-3.30;51.70
8459;DHT22;4266;48.816;9.154;2024-01-10T05:24:02;-3.50;51.80
8459;DHT22;4266;48.816;9.154;2024-01-10T05:26:28;-3.60;51.50
8459;DHT22;4266;48.816;9.154;2024-01-10T05:28:54;-3.50;52.70
8459;DHT22;4266;48.816;9.154;2024-01-10T05:31:19;-3.50;53.20
8459;DHT22;4266;48.816;9.154;2024-01-10T05:33:45;-3.50;52.80
8459;DHT22;4266;48.816;9.154;2024-01-10T05:36:11;-3.50;52.90
8459;DHT22;4266;48.816;9.154;2024-01-10T05:38:37;-3.50;52.60
8459;DHT22;4266;48.816;9.154;2024-01-10T05:41:03;-3.60;53.40
8459;DHT22;4266;48.816;9.154;2024-01-10T05:43:29;-3.60;53.40
8459;DHT22;4266;48.816;9.154;2024-01-10T05:45:54;-3.60;53.10
8459;DHT22;4266;48.816;9.154;2024-01-10T05:48:20;-3.70;53.00
8459;DHT22;4266;48.816;9.154;2024-01-10T05:50:46;-3.60;53.50
8459;DHT22;4266;48.816;9.154;2024-01-10T05:53:12;-3.60;53.50
8459;DHT22;4266;48.816;9.154;2024-01-10T05:55:38;-3.70;53.00
8459;DHT22;4266;48.816;9.154;2024-01-10T05:58:04;-3.80;53.00
8459;DHT22;4266;48.816;9.154;2024-01-10T06:00:30;-3.80;53.00
8459;DHT22;4266;48.816;9.154;2024-01-10T06:02:55;-3.70;53.90
8459;DHT22;4266;48.816;9.154;2024-01-10T06:05:21;-3.70;53.90
8459;DHT22;4266;48.816;9.154;2024-01-10T06:07:47;-3.70;53.20
8459;DHT22;4266;48.816;9.154;2024-01-10T06:10:13;-3.70;53.20
8459;DHT22;4266;48.816;9.154;2024-01-10T06:12:39;-3.70;53.60
8459;DHT22;4266;48.816;9.154;2024-01-10T06:15:06;-3.60;54.00
8459;DHT22;4266;48.816;9.154;2024-01-10T06:17:33;-3.80;53.60
8459;DHT22;4266;48.816;9.154;2024-01-10T06:19:59;-3.80;53.60
8459;DHT22;4266;48.816;9.154;2024-01-10T06:22:25;-3.80;53.70
8459;DHT22;4266;48.816;9.154;2024-01-10T06:24:50;-3.90;54.10
8459;DHT22;4266;48.816;9.154;2024-01-10T06:27:16;-3.90;54.50
8459;DHT22;4266;48.816;9.154;2024-01-10T06:29:42;-3.90;54.00
8459;DHT22;4266;48.816;9.154;2024-01-10T06:32:08;-4.20;53.90
8459;DHT22;4266;48.816;9.154;2024-01-10T06:34:34;-4.20;53.80
8459;DHT22;4266;48.816;9.154;2024-01-10T06:36:59;-4.10;54.30
8459;DHT22;4266;48.816;9.154;2024-01-10T06:39:26;-4.10;54.60
8459;DHT22;4266;48.816;9.154;2024-01-10T06:41:52;-4.10;54.60
8459;DHT22;4266;48.816;9.154;2024-01-10T06:44:17;-4.10;54.50
8459;DHT22;4266;48.816;9.154;2024-01-10T06:46:43;-4.20;54.10
8459;DHT22;4266;48.816;9.154;2024-01-10T06:49:09;-4.20;54.00
8459;DHT22;4266;48.816;9.154;2024-01-10T06:51:34;-4.30;54.00
8459;DHT22;4266;48.816;9.154;2024-01-10T06:54:01;-4.30;54.10
8459;DHT22;4266;48.816;9.154;2024-01-10T06:56:26;-4.30;54.10
8459;DHT22;4266;48.816;9.154;2024-01-10T06:58:52;-4.30;54.10
8459;DHT22;4266;48.816;9.154;2024-01-10T07:01:18;-4.30;54.50
8459;DHT22;4266;48.816;9.154;2024-01-10T07:03:43;-4.40;54.80
8459;DHT22;4266;48.816;9.154;2024-01-10T07:06:10;-4.40;55.00
8459;DHT22;4266;48.816;9.154;2024-01-10T07:08:36;-4.40;55.20
8459;DHT22;4266;48.816;9.154;2024-01-10T07:11:02;-4.40;55.20
8459;DHT22;4266;48.816;9.154;2024-01-10T07:13:27;-4.40;55.20
8459;DHT22;4266;48.816;9.154;2024-01-10T07:15:53;-4.40;54.90
8459;DHT22;4266;48.816;9.154;2024-01-10T07:18:19;-4.40;54.90
8459;DHT22;4266;48.816;9.154;2024-01-10T07:20:44;-4.40;55.20
8459;DHT22;4266;48.816;9.154;2024-01-10T07:23:10;-4.40;55.50
8459;DHT22;4266;48.816;9.154;2024-01-10T07:25:36;-4.40;55.50
8459;DHT22;4266;48.816;9.154;2024-01-10T07:28:01;-4.40;55.30
8459;DHT22;4266;48.816;9.154;2024-01-10T07:30:27;-4.40;55.30
8459;DHT22;4266;48.816;9.154;2024-01-10T07:32:53;-4.30;55.10
8459;DHT22;4266;48.816;9.154;2024-01-10T07:35:18;-4.30;55.30
8459;DHT22;4266;48.816;9.154;2024-01-10T07:37:44;-4.40;55.30
8459;DHT22;4266;48.816;9.154;2024-01-10T07:40:11;-4.20;56.30
8459;DHT22;4266;48.816;9.154;2024-01-10T07:42:37;-4.20;55.90
8459;DHT22;4266;48.816;9.154;2024-01-10T07:45:04;-4.30;55.90
8459;DHT22;4266;48.816;9.154;2024-01-10T07:47:30;-4.10;56.20
8459;DHT22;4266;48.816;9.154;2024-01-10T07:49:55;-4.20;55.90
8459;DHT22;4266;48.816;9.154;2024-01-10T07:52:21;-4.00;56.60
8459;DHT22;4266;48.816;9.154;2024-01-10T07:54:47;-4.00;56.40
8459;DHT22;4266;48.816;9.154;2024-01-10T07:57:13;-4.00;56.40
8459;DHT22;4266;48.816;9.154;2024-01-10T07:59:39;-3.70;56.70
8459;DHT22;4266;48.816;9.154;2024-01-10T08:02:05;-3.70;56.70
8459;DHT22;4266;48.816;9.154;2024-01-10T08:04:31;-3.90;56.40
8459;DHT22;4266;48.816;9.154;2024-01-10T08:06:56;-3.60;57.10
8459;DHT22;4266;48.816;9.154;2024-01-10T08:09:23;-3.30;56.00
8459;DHT22;4266;48.816;9.154;2024-01-10T08:11:49;-3.30;56.00
8459;DHT22;4266;48.816;9.154;2024-01-10T08:14:15;-3.00;56.40
8459;DHT22;4266;48.816;9.154;2024-01-10T08:16:41;-3.00;56.30
8459;DHT22;4266;48.816;9.154;2024-01-10T08:19:07;-3.00;56.30
8459;DHT22;4266;48.816;9.154;2024-01-10T08:21:33;-2.50;55.80
8459;DHT22;4266;48.816;9.154;2024-01-10T08:23:58;-2.10;55.00
8459;DHT22;4266;48.816;9.154;2024-01-10T08:26:24;-1.90;54.80
8459;DHT22;4266;48.816;9.154;2024-01-10T08:28:49;-1.50;53.70
8459;DHT22;4266;48.816;9.154;2024-01-10T08:31:16;-0.80;53.30
8459;DHT22;4266;48.816;9.154;2024-01-10T08:33:42;1.40;50.20
8459;DHT22;4266;48.816;9.154;2024-01-10T08:36:08;1.30;50.10
8459;DHT22;4266;48.816;9.154;2024-01-10T08:38:34;2.20;47.30
8459;DHT22;4266;48.816;9.154;2024-01-10T08:40:59;3.50;45.80
8459;DHT22;4266;48.816;9.154;2024-01-10T08:43:25;4.20;43.80
8459;DHT22;4266;48.816;9.154;2024-01-10T08:45:51;4.40;42.50
8459;DHT22;4266;48.816;9.154;2024-01-10T08:48:17;5.50;41.00
8459;DHT22;4266;48.816;9.154;2024-01-10T08:50:43;5.50;41.00
8459;DHT22;4266;48.816;9.154;2024-01-10T08:53:09;6.00;40.20
8459;DHT22;4266;48.816;9.154;2024-01-10T08:55:35;5.90;40.00
8459;DHT22;4266;48.816;9.154;2024-01-10T08:58:01;6.40;38.50
8459;DHT22;4266;48.816;9.154;2024-01-10T09:00:27;6.40;38.40
8459;DHT22;4266;48.816;9.154;2024-01-10T09:02:54;7.40;37.90
8459;DHT22;4266;48.816;9.154;2024-01-10T09:05:18;7.80;37.30
8459;DHT22;4266;48.816;9.154;2024-01-10T09:07:44;7.20;37.30
8459;DHT22;4266;48.816;9.154;2024-01-10T09:10:10;7.60;37.00
8459;DHT22;4266;48.816;9.154;2024-01-10T09:12:36;7.60;36.90
8459;DHT22;4266;48.816;9.154;2024-01-10T09:15:03;7.10;36.50
8459;DHT22;4266;48.816;9.154;2024-01-10T09:17:29;7.10;36.50
8459;DHT22;4266;48.816;9.154;2024-01-10T09:19:54;8.00;36.10
8459;DHT22;4266;48.816;9.154;2024-01-10T09:22:20;6.50;35.80
8459;DHT22;4266;48.816;9.154;2024-01-10T09:24:46;6.80;36.20
8459;DHT22;4266;48.816;9.154;2024-01-10T09:27:12;6.80;36.20
8459;DHT22;4266;48.816;9.154;2024-01-10T09:29:38;7.30;36.70
8459;DHT22;4266;48.816;9.154;2024-01-10T09:32:04;7.20;35.40
8459;DHT22;4266;48.816;9.154;2024-01-10T09:34:30;8.20;36.10
8459;DHT22;4266;48.816;9.154;2024-01-10T09:36:56;8.50;35.40
8459;DHT22;4266;48.816;9.154;2024-01-10T09:39:22;8.30;35.00
8459;DHT22;4266;48.816;9.154;2024-01-10T09:41:48;8.00;35.10
8459;DHT22;4266;48.816;9.154;2024-01-10T09:44:14;9.40;35.20
8459;DHT22;4266;48.816;9.154;2024-01-10T09:46:40;10.80;33.50
8459;DHT22;4266;48.816;9.154;2024-01-10T09:49:06;10.80;33.50
8459;DHT22;4266;48.816;9.154;2024-01-10T09:51:32;9.50;34.00
8459;DHT22;4266;48.816;9.154;2024-01-10T09:53:57;9.50;33.90
8459;DHT22;4266;48.816;9.154;2024-01-10T09:56:23;9.90;34.70
8459;DHT22;4266;48.816;9.154;2024-01-10T09:58:48;10.90;32.90
8459;DHT22;4266;48.816;9.154;2024-01-10T10:01:14;10.10;32.10
8459;DHT22;4266;48.816;9.154;2024-01-10T10:03:41;10.90;33.00
8459;DHT22;4266;48.816;9.154;2024-01-10T10:06:05;10.30;32.30
8459;DHT22;4266;48.816;9.154;2024-01-10T10:08:31;10.50;32.70
8459;DHT22;4266;48.816;9.154;2024-01-10T10:10:58;11.10;32.70
8459;DHT22;4266;48.816;9.154;2024-01-10T10:13:26;11.10;32.70
8459;DHT22;4266;48.816;9.154;2024-01-10T10:15:58;12.00;31.90
8459;DHT22;4266;48.816;9.154;2024-01-10T10:18:23;12.00;31.90
8459;DHT22;4266;48.816;9.154;2024-01-10T10:20:48;11.30;31.40
8459;DHT22;4266;48.816;9.154;2024-01-10T10:23:15;10.40;31.80
8459;DHT22;4266;48.816;9.154;2024-01-10T10:25:43;10.30;31.80
8459;DHT22;4266;48.816;9.154;2024-01-10T10:28:08;10.40;32.00
8459;DHT22;4266;48.816;9.154;2024-01-10T10:30:34;12.00;31.80
8459;DHT22;4266;48.816;9.154;2024-01-10T10:33:02;12.00;31.80
8459;DHT22;4266;48.816;9.154;2024-01-10T10:35:27;11.70;32.30
8459;DHT22;4266;48.816;9.154;2024-01-10T10:37:52;12.10;32.00
8459;DHT22;4266;48.816;9.154;2024-01-10T10:40:18;12.80;32.10
8459;DHT22;4266;48.816;9.154;2024-01-10T10:42:45;12.30;32.00
8459;DHT22;4266;48.816;9.154;2024-01-10T10:45:10;12.30;32.00
8459;DHT22;4266;48.816;9.154;2024-01-10T10:47:36;10.60;31.70
8459;DHT22;4266;48.816;9.154;2024-01-10T10:50:03;11.30;31.60
8459;DHT22;4266;48.816;9.154;2024-01-10T10:52:29;11.30;31.60
8459;DHT22;4266;48.816;9.154;2024-01-10T10:54:55;12.00;32.20
8459;DHT22;4266;48.816;9.154;2024-01-10T10:57:20;11.70;31.50
8459;DHT22;4266;48.816;9.154;2024-01-10T10:59:46;11.80;31.70
8459;DHT22;4266;48.816;9.154;2024-01-10T11:02:12;10.90;31.60
8459;DHT22;4266;48.816;9.154;2024-01-10T11:04:37;11.90;31.60
8459;DHT22;4266;48.816;9.154;2024-01-10T11:07:04;11.40;31.50
8459;DHT22;4266;48.816;9.154;2024-01-10T11:09:30;11.90;31.80
8459;DHT22;4266;48.816;9.154;2024-01-10T11:12:05;11.80;31.70
8459;DHT22;4266;48.816;9.154;2024-01-10T11:25:05;10.90;31.90
8459;DHT22;4266;48.816;9.154;2024-01-10T11:27:30;10.80;32.50
8459;DHT22;4266;48.816;9.154;2024-01-10T11:29:56;12.10;31.90
8459;DHT22;4266;48.816;9.154;2024-01-10T11:32:24;11.50;31.90
8459;DHT22;4266;48.816;9.154;2024-01-10T11:37:38;9.60;33.30
8459;DHT22;4266;48.816;9.154;2024-01-10T11:40:05;10.50;32.10
8459;DHT22;4266;48.816;9.154;2024-01-10T11:45:04;12.70;32.20
8459;DHT22;4266;48.816;9.154;2024-01-10T11:47:30;11.80;31.90
8459;DHT22;4266;48.816;9.154;2024-01-10T11:49:57;11.00;32.10
8459;DHT22;4266;48.816;9.154;2024-01-10T11:52:23;10.90;31.50
8459;DHT22;4266;48.816;9.154;2024-01-10T11:54:48;10.50;31.70
8459;DHT22;4266;48.816;9.154;2024-01-10T11:57:20;10.30;32.40
8459;DHT22;4266;48.816;9.154;2024-01-10T11:59:45;10.30;32.40
8459;DHT22;4266;48.816;9.154;2024-01-10T12:02:11;11.10;32.00
8459;DHT22;4266;48.816;9.154;2024-01-10T12:04:37;11.10;32.40
8459;DHT22;4266;48.816;9.154;2024-01-10T12:07:02;11.10;32.60
8459;DHT22;4266;48.816;9.154;2024-01-10T12:09:28;12.00;32.10
8459;DHT22;4266;48.816;9.154;2024-01-10T12:11:54;11.70;31.90
8459;DHT22;4266;48.816;9.154;2024-01-10T12:14:19;11.80;32.30
8459;DHT22;4266;48.816;9.154;2024-01-10T12:16:45;11.60;32.30
8459;DHT22;4266;48.816;9.154;2024-01-10T12:19:11;11.40;32.00
8459;DHT22;4266;48.816;9.154;2024-01-10T12:21:36;11.60;32.00
8459;DHT22;4266;48.816;9.154;2024-01-10T12:24:04;11.00;32.00
8459;DHT22;4266;48.816;9.154;2024-01-10T12:26:29;10.60;32.50
8459;DHT22;4266;48.816;9.154;2024-01-10T12:28:55;9.40;33.60
8459;DHT22;4266;48.816;9.154;2024-01-10T12:31:20;10.40;32.70
8459;DHT22;4266;48.816;9.154;2024-01-10T12:33:47;10.90;32.40
8459;DHT22;4266;48.816;9.154;2024-01-10T12:36:12;10.50;32.80
8459;DHT22;4266;48.816;9.154;2024-01-10T12:38:38;9.70;32.80
8459;DHT22;4266;48.816;9.154;2024-01-10T12:41:04;9.60;33.90
8459;DHT22;4266;48.816;9.154;2024-01-10T12:43:30;9.30;33.60
8459;DHT22;4266;48.816;9.154;2024-01-10T12:46:05;9.30;33.60
8459;DHT22;4266;48.816;9.154;2024-01-10T12:48:31;9.70;33.70
8459;DHT22;4266;48.816;9.154;2024-01-10T12:50:57;10.00;32.60
8459;DHT22;4266;48.816;9.154;2024-01-10T12:53:22;10.40;32.70
8459;DHT22;4266;48.816;9.154;2024-01-10T12:55:48;9.80;33.30
8459;DHT22;4266;48.816;9.154;2024-01-10T12:58:14;9.90;33.70
8459;DHT22;4266;48.816;9.154;2024-01-10T13:00:41;9.50;33.40
8459;DHT22;4266;48.816;9.154;2024-01-10T13:03:06;9.50;33.40
8459;DHT22;4266;48.816;9.154;2024-01-10T13:05:32;8.90;34.20
8459;DHT22;4266;48.816;9.154;2024-01-10T13:07:58;9.80;33.70
8459;DHT22;4266;48.816;9.154;2024-01-10T13:10:24;9.80;33.70
8459;DHT22;4266;48.816;9.154;2024-01-10T13:12:49;9.10;33.90
8459;DHT22;4266;48.816;9.154;2024-01-10T13:15:16;9.40;33.90
8459;DHT22;4266;48.816;9.154;2024-01-10T13:17:42;9.40;33.90
8459;DHT22;4266;48.816;9.154;2024-01-10T13:20:08;9.60;33.90
8459;DHT22;4266;48.816;9.154;2024-01-10T13:22:34;8.80;34.40
8459;DHT22;4266;48.816;9.154;2024-01-10T13:25:01;9.70;34.20
8459;DHT22;4266;48.816;9.154;2024-01-10T13:27:26;9.80;34.30
8459;DHT22;4266;48.816;9.154;2024-01-10T13:29:53;8.00;34.30
8459;DHT22;4266;48.816;9.154;2024-01-10T13:32:19;9.00;34.80
8459;DHT22;4266;48.816;9.154;2024-01-10T13:34:45;9.00;34.80
8459;DHT22;4266;48.816;9.154;2024-01-10T13:37:10;8.80;34.50
8459;DHT22;4266;48.816;9.154;2024-01-10T13:39:36;9.40;34.80
8459;DHT22;4266;48.816;9.154;2024-01-10T13:42:02;8.90;34.10
8459;DHT22;4266;48.816;9.154;2024-01-10T13:44:28;8.70;34.80
8459;DHT22;4266;48.816;9.154;2024-01-10T13:46:54;8.10;35.00
8459;DHT22;4266;48.816;9.154;2024-01-10T13:49:20;8.10;34.90
8459;DHT22;4266;48.816;9.154;2024-01-10T13:51:46;8.40;35.00
8459;DHT22;4266;48.816;9.154;2024-01-10T13:54:12;8.40;35.00
8459;DHT22;4266;48.816;9.154;2024-01-10T13:56:38;8.00;35.10
8459;DHT22;4266;48.816;9.154;2024-01-10T13:59:03;8.00;35.10
8459;DHT22;4266;48.816;9.154;2024-01-10T14:01:29;7.60;35.10
8459;DHT22;4266;48.816;9.154;2024-01-10T14:03:55;7.60;35.50
8459;DHT22;4266;48.816;9.154;2024-01-10T14:06:20;7.80;35.60
8459;DHT22;4266;48.816;9.154;2024-01-10T14:08:46;6.60;35.50
8459;DHT22;4266;48.816;9.154;2024-01-10T14:11:12;5.90;36.10
8459;DHT22;4266;48.816;9.154;2024-01-10T14:13:38;4.50;36.80
8459;DHT22;4266;48.816;9.154;2024-01-10T14:16:04;4.40;37.70
8459;DHT22;4266;48.816;9.154;2024-01-10T14:18:30;4.50;37.50
8459;DHT22;4266;48.816;9.154;2024-01-10T14:20:55;4.00;37.90
8459;DHT22;4266;48.816;9.154;2024-01-10T14:23:21;3.50;37.70
8459;DHT22;4266;48.816;9.154;2024-01-10T14:25:47;3.10;38.30
8459;DHT22;4266;48.816;9.154;2024-01-10T14:28:13;2.40;38.70
8459;DHT22;4266;48.816;9.154;2024-01-10T14:30:39;2.40;38.70
8459;DHT22;4266;48.816;9.154;2024-01-10T14:33:04;2.40;39.00
8459;DHT22;4266;48.816;9.154;2024-01-10T14:35:31;2.90;39.40
8459;DHT22;4266;48.816;9.154;2024-01-10T14:37:56;2.90;39.60
8459;DHT22;4266;48.816;9.154;2024-01-10T14:40:22;2.50;39.20
8459;DHT22;4266;48.816;9.154;2024-01-10T14:42:48;2.20;39.30
8459;DHT22;4266;48.816;9.154;2024-01-10T14:45:13;2.10;39.60
8459;DHT22;4266;48.816;9.154;2024-01-10T14:47:39;2.10;39.80
8459;DHT22;4266;48.816;9.154;2024-01-10T14:50:06;1.80;40.00
8459;DHT22;4266;48.816;9.154;2024-01-10T14:52:32;1.70;39.90
8459;DHT22;4266;48.816;9.154;2024-01-10T14:54:58;1.60;40.10
8459;DHT22;4266;48.816;9.154;2024-01-10T14:57:24;1.60;40.30
8459;DHT22;4266;48.816;9.154;2024-01-10T14:59:49;1.30;40.70
8459;DHT22;4266;48.816;9.154;2024-01-10T15:02:15;1.20;40.80
8459;DHT22;4266;48.816;9.154;2024-01-10T15:04:41;1.10;41.30
8459;DHT22;4266;48.816;9.154;2024-01-10T15:07:07;1.10;41.30
8459;DHT22;4266;48.816;9.154;2024-01-10T15:09:33;1.00;41.30
8459;DHT22;4266;48.816;9.154;2024-01-10T15:11:58;0.90;41.50
8459;DHT22;4266;48.816;9.154;2024-01-10T15:14:24;0.70;41.60
8459;DHT22;4266;48.816;9.154;2024-01-10T15:16:50;0.70;41.90
8459;DHT22;4266;48.816;9.154;2024-01-10T15:19:15;0.60;41.90
8459;DHT22;4266;48.816;9.154;2024-01-10T15:21:41;0.50;42.20
8459;DHT22;4266;48.816;9.154;2024-01-10T15:24:06;0.50;42.50
8459;DHT22;4266;48.816;9.154;2024-01-10T15:26:32;0.50;42.60
8459;DHT22;4266;48.816;9.154;2024-01-10T15:28:58;0.30;42.90
8459;DHT22;4266;48.816;9.154;2024-01-10T15:31:24;0.20;42.80
8459;DHT22;4266;48.816;9.154;2024-01-10T15:33:50;0.20;43.00
8459;DHT22;4266;48.816;9.154;2024-01-10T15:36:16;0.10;43.20
8459;DHT22;4266;48.816;9.154;2024-01-10T15:38:42;0.10;43.20
8459;DHT22;4266;48.816;9.154;2024-01-10T15:41:08;0.10;43.30
8459;DHT22;4266;48.816;9.154;2024-01-10T15:43:33;0.10;43.30
8459;DHT22;4266;48.816;9.154;2024-01-10T15:45:59;0.00;43.40
8459;DHT22;4266;48.816;9.154;2024-01-10T15:48:25;-0.10;44.20
8459;DHT22;4266;48.816;9.154;2024-01-10T15:50:50;-0.30;44.10
8459;DHT22;4266;48.816;9.154;2024-01-10T15:53:16;-0.40;44.10
8459;DHT22;4266;48.816;9.154;2024-01-10T15:55:42;-0.50;44.50
8459;DHT22;4266;48.816;9.154;2024-01-10T15:58:08;-0.60;44.60
8459;DHT22;4266;48.816;9.154;2024-01-10T16:00:34;-0.60;44.60
8459;DHT22;4266;48.816;9.154;2024-01-10T16:02:59;-0.70;45.10
8459;DHT22;4266;48.816;9.154;2024-01-10T16:05:26;-0.90;45.20
8459;DHT22;4266;48.816;9.154;2024-01-10T16:07:52;-0.90;45.20
8459;DHT22;4266;48.816;9.154;2024-01-10T16:10:19;-0.90;45.90
8459;DHT22;4266;48.816;9.154;2024-01-10T16:12:44;-1.00;45.80
8459;DHT22;4266;48.816;9.154;2024-01-10T16:15:11;-1.10;46.30